CTN5780 LDZD-LDOS

Flight info

Callsign CTN5780
Flight time 0h 36m
Altitude 27000
Route PALEZ DCT NASSY
Aircraft A320/M-SDE3FGHIRWY/LB1

Departure

Time 2026-05-08 10:09
Airport Zadar Airport (LDZD)

Arrival

Time 2026-05-08 10:46
Airport Osijek Airport (LDOS)
Time Latitude Longitude Altitude Speed Heading
2026-05-08 10:09 44.28874 15.30978 20337 ft 291 kts 28°
2026-05-08 10:09 44.30657 15.32357 20874 ft 296 kts 28°
2026-05-08 10:10 44.32472 15.33762 21421 ft 300 kts 28°
2026-05-08 10:10 44.34311 15.35187 21953 ft 305 kts 28°
2026-05-08 10:10 44.36175 15.36637 22516 ft 309 kts 28°
2026-05-08 10:10 44.38040 15.38093 23049 ft 313 kts 28°
2026-05-08 10:11 44.39955 15.39589 23586 ft 318 kts 28°
2026-05-08 10:11 44.41898 15.41102 24036 ft 322 kts 28°
2026-05-08 10:11 44.43867 15.42633 24493 ft 325 kts 27°
2026-05-08 10:11 44.45858 15.44186 24939 ft 329 kts 27°
2026-05-08 10:12 44.47866 15.45756 25380 ft 332 kts 27°
2026-05-08 10:12 44.49896 15.47343 25840 ft 336 kts 27°
2026-05-08 10:12 44.51949 15.48952 26274 ft 339 kts 28°
2026-05-08 10:12 44.53937 15.50772 26713 ft 344 kts 36°
2026-05-08 10:13 44.55801 15.52937 26970 ft 355 kts 43°
2026-05-08 10:13 44.57548 15.55497 27027 ft 372 kts 50°
2026-05-08 10:13 44.59148 15.58464 27031 ft 390 kts 57°
2026-05-08 10:13 44.60542 15.61815 27034 ft 407 kts 64°
2026-05-08 10:14 44.61823 15.65451 27031 ft 424 kts 64°
2026-05-08 10:14 44.63153 15.69229 27032 ft 439 kts 64°
2026-05-08 10:14 44.64533 15.73137 27034 ft 453 kts 64°
2026-05-08 10:14 44.65954 15.77158 27038 ft 466 kts 64°
2026-05-08 10:15 44.67414 15.81288 27033 ft 477 kts 64°
2026-05-08 10:15 44.68899 15.85488 27035 ft 482 kts 64°
2026-05-08 10:15 44.70391 15.89718 27038 ft 484 kts 64°
2026-05-08 10:15 44.71883 15.93967 27037 ft 485 kts 64°
2026-05-08 10:16 44.73370 15.98213 27038 ft 485 kts 64°
2026-05-08 10:16 44.74860 16.02476 27040 ft 485 kts 65°
2026-05-08 10:16 44.76350 16.06737 27041 ft 486 kts 64°
2026-05-08 10:16 44.77843 16.11006 27042 ft 486 kts 64°
2026-05-08 10:17 44.79332 16.15276 27041 ft 486 kts 64°
2026-05-08 10:17 44.80815 16.19543 27042 ft 486 kts 64°
2026-05-08 10:17 44.82301 16.23825 27040 ft 486 kts 64°
2026-05-08 10:17 44.83781 16.28101 27038 ft 486 kts 64°
2026-05-08 10:18 44.85241 16.32326 27037 ft 486 kts 64°
2026-05-08 10:18 44.86718 16.36605 27032 ft 486 kts 64°
2026-05-08 10:18 44.88196 16.40883 27036 ft 485 kts 64°
2026-05-08 10:18 44.89676 16.45171 27035 ft 486 kts 64°
2026-05-08 10:19 44.91151 16.49454 27033 ft 486 kts 64°
2026-05-08 10:19 44.92623 16.53737 27031 ft 486 kts 64°
2026-05-08 10:19 44.94097 16.58031 27033 ft 486 kts 64°
2026-05-08 10:20 44.97035 16.66619 27036 ft 486 kts 64°
2026-05-08 10:20 44.98498 16.70916 27031 ft 486 kts 64°
2026-05-08 10:20 44.99964 16.75220 27032 ft 486 kts 64°
2026-05-08 10:20 45.01431 16.79527 27032 ft 486 kts 64°
2026-05-08 10:21 45.02895 16.83836 27026 ft 487 kts 64°
2026-05-08 10:21 45.04358 16.88150 27031 ft 487 kts 64°
2026-05-08 10:21 45.05818 16.92467 27023 ft 487 kts 64°
2026-05-08 10:21 45.07276 16.96787 27031 ft 487 kts 64°
2026-05-08 10:22 45.08733 17.01118 26804 ft 489 kts 65°
2026-05-08 10:22 45.10191 17.05458 26393 ft 489 kts 65°
2026-05-08 10:22 45.11650 17.09808 26042 ft 488 kts 65°
2026-05-08 10:22 45.13086 17.14086 25687 ft 474 kts 65°
2026-05-08 10:23 45.14474 17.18220 25361 ft 461 kts 65°
2026-05-08 10:23 45.15838 17.22286 25028 ft 450 kts 65°
2026-05-08 10:23 45.17164 17.26247 24691 ft 439 kts 65°
2026-05-08 10:23 45.18455 17.30116 24374 ft 430 kts 65°
2026-05-08 10:24 45.19721 17.33925 24047 ft 423 kts 65°
2026-05-08 10:24 45.20965 17.37672 23721 ft 419 kts 65°
2026-05-08 10:24 45.22203 17.41392 23361 ft 415 kts 65°
2026-05-08 10:24 45.23427 17.45076 22980 ft 411 kts 65°
2026-05-08 10:25 45.24642 17.48744 22595 ft 409 kts 65°
2026-05-08 10:25 45.25841 17.52372 22236 ft 405 kts 65°
2026-05-08 10:25 45.27020 17.55943 21872 ft 402 kts 65°
2026-05-08 10:25 45.28212 17.59564 21502 ft 399 kts 65°
2026-05-08 10:26 45.29367 17.63073 21159 ft 396 kts 65°
2026-05-08 10:26 45.30525 17.66595 20806 ft 393 kts 65°
2026-05-08 10:26 45.31674 17.70095 20453 ft 390 kts 65°
2026-05-08 10:26 45.32815 17.73571 20115 ft 387 kts 65°
2026-05-08 10:27 45.33948 17.77018 19777 ft 384 kts 65°
2026-05-08 10:27 45.35073 17.80446 19405 ft 381 kts 65°
2026-05-08 10:27 45.36184 17.83843 19023 ft 377 kts 65°
2026-05-08 10:27 45.37283 17.87211 18648 ft 373 kts 65°
2026-05-08 10:28 45.38367 17.90535 18263 ft 369 kts 65°
2026-05-08 10:28 45.39443 17.93842 17833 ft 365 kts 65°
2026-05-08 10:28 45.40146 17.96008 17555 ft 363 kts 65°
2026-05-08 10:28 45.41207 17.99287 16766 ft 369 kts 66°
2026-05-08 10:29 45.42279 18.02602 15914 ft 365 kts 65°
2026-05-08 10:29 45.43336 18.05871 14912 ft 364 kts 65°
2026-05-08 10:29 45.44194 18.09245 13908 ft 362 kts 79°
2026-05-08 10:29 45.44343 18.12799 12798 ft 359 kts 97°
2026-05-08 10:30 45.43980 18.16293 11725 ft 355 kts 100°
2026-05-08 10:30 45.43590 18.19750 10687 ft 352 kts 100°
2026-05-08 10:30 45.43202 18.23166 9647 ft 348 kts 100°
2026-05-08 10:30 45.42816 18.26544 8548 ft 343 kts 100°
2026-05-08 10:31 45.42435 18.29887 7253 ft 343 kts 100°
2026-05-08 10:31 45.42053 18.33244 5949 ft 344 kts 100°
2026-05-08 10:31 45.41671 18.36591 4812 ft 338 kts 100°
2026-05-08 10:31 45.41311 18.39751 4366 ft 308 kts 100°
2026-05-08 10:32 45.40984 18.42621 4158 ft 280 kts 100°
2026-05-08 10:32 45.40689 18.45207 3982 ft 250 kts 100°
2026-05-08 10:32 45.40414 18.47618 3317 ft 246 kts 100°
2026-05-08 10:32 45.39992 18.49943 2701 ft 241 kts 114°
2026-05-08 10:33 45.39284 18.52008 2482 ft 220 kts 117°
2026-05-08 10:33 45.38640 18.53899 2478 ft 207 kts 117°
2026-05-08 10:33 45.38027 18.55722 2476 ft 202 kts 116°
2026-05-08 10:33 45.37421 18.57520 2475 ft 201 kts 116°
2026-05-08 10:34 45.36815 18.59307 2475 ft 200 kts 117°
2026-05-08 10:34 45.36211 18.61089 2475 ft 200 kts 117°
2026-05-08 10:34 45.35606 18.62873 2476 ft 200 kts 116°
2026-05-08 10:34 45.35003 18.64654 2476 ft 200 kts 117°
2026-05-08 10:35 45.34399 18.66436 2483 ft 200 kts 117°
2026-05-08 10:35 45.33976 18.68306 2479 ft 200 kts 97°
2026-05-08 10:35 45.34076 18.70273 2480 ft 202 kts 74°
2026-05-08 10:35 45.34696 18.72056 2481 ft 203 kts 51°
2026-05-08 10:36 45.35740 18.73388 2482 ft 203 kts 35°
2026-05-08 10:36 45.36880 18.74570 2477 ft 203 kts 37°
2026-05-08 10:36 45.38015 18.75765 2473 ft 203 kts 36°
2026-05-08 10:36 45.38985 18.77192 2467 ft 203 kts 62°
2026-05-08 10:37 45.39372 18.79096 2477 ft 201 kts 82°
2026-05-08 10:37 45.39564 18.81051 2471 ft 192 kts 83°
2026-05-08 10:37 45.39738 18.82829 2461 ft 179 kts 83°
2026-05-08 10:37 45.39907 18.84556 2400 ft 175 kts 82°
2026-05-08 10:38 45.40073 18.86256 2244 ft 172 kts 83°
2026-05-08 10:38 45.40238 18.87939 2094 ft 171 kts 83°
2026-05-08 10:38 45.40403 18.89610 1945 ft 170 kts 83°
2026-05-08 10:38 45.40567 18.91282 1803 ft 170 kts 83°
2026-05-08 10:39 45.40756 18.92936 1639 ft 170 kts 72°
2026-05-08 10:39 45.41512 18.94141 1486 ft 169 kts 15°
2026-05-08 10:39 45.42609 18.93940 1410 ft 164 kts 317°
2026-05-08 10:39 45.43063 18.92572 1501 ft 153 kts 257°
2026-05-08 10:40 45.42488 18.91516 2092 ft 132 kts 215°
2026-05-08 10:40 45.41943 18.90644 2753 ft 111 kts 244°
2026-05-08 10:40 45.41691 18.89404 3137 ft 133 kts 256°
2026-05-08 10:40 45.41514 18.88300 3117 ft 120 kts 257°
2026-05-08 10:41 45.41823 18.86677 2802 ft 191 kts 313°
2026-05-08 10:41 45.42664 18.85501 3385 ft 151 kts 313°
2026-05-08 10:41 45.43354 18.84495 3330 ft 142 kts 314°
2026-05-08 10:41 45.44184 18.83275 3374 ft 206 kts 305°
2026-05-08 10:42 45.44946 18.81451 3314 ft 208 kts 291°
2026-05-08 10:42 45.45440 18.79610 3109 ft 191 kts 289°
2026-05-08 10:42 45.45845 18.77874 2918 ft 178 kts 281°
2026-05-08 10:42 45.45982 18.76226 2883 ft 156 kts 275°
2026-05-08 10:43 45.46182 18.74753 2692 ft 148 kts 283°
2026-05-08 10:43 45.46468 18.73365 2406 ft 145 kts 292°
2026-05-08 10:43 45.47077 18.72210 2060 ft 150 kts 324°
2026-05-08 10:43 45.48073 18.71790 1711 ft 154 kts 10°
2026-05-08 10:44 45.48807 18.72727 1357 ft 152 kts 84°
2026-05-08 10:44 45.48408 18.74042 1018 ft 151 kts 150°
2026-05-08 10:44 45.47628 18.74874 899 ft 135 kts 113°
2026-05-08 10:44 45.47424 18.76274 1018 ft 152 kts 97°
2026-05-08 10:45 45.47181 18.77730 821 ft 151 kts 107°
2026-05-08 10:45 45.46753 18.79111 466 ft 151 kts 116°
2026-05-08 10:45 45.46390 18.80420 332 ft 132 kts 107°
2026-05-08 10:45 45.46173 18.81376 299 ft 50 kts 112°
2026-05-08 10:46 45.46097 18.81653 301 ft 11 kts 62°
2026-05-08 10:46 45.46113 18.81660 302 ft 0 kts 323°
2026-05-08 10:46 45.46140 18.81538 300 ft 28 kts 291°
2026-05-08 10:46 45.46209 18.81270 301 ft 29 kts 289°
2026-05-08 10:47 45.46279 18.81000 302 ft 30 kts 291°
2026-05-08 10:47 45.46360 18.80778 299 ft 17 kts 340°
2026-05-08 10:47 45.46439 18.80816 300 ft 12 kts 19°
2026-05-08 10:47 45.46503 18.80778 300 ft 12 kts 297°
2026-05-08 10:48 45.46552 18.80702 300 ft 12 kts 359°
2026-05-08 10:48 45.46568 18.80693 302 ft 0 kts 313°